Time;durP1;ratioP1;P1;durP2;ratioP2;P2;SDS_P1;SDS_P2;PMS_P1;PMS_P2;Temp;Humidity;BMP_temperature;BMP_pressure;BME280_temperature;BME280_humidity;BME280_pressure;Samples;Min_cycle;Max_cycle;Signal;HPM_P1;HPM_P2
2022/09/22 00:01:23;;;;;;;1.77;1.63;;;;;;;;;;5066057;28;20254;-76
2022/09/22 00:03:49;;;;;;;2.93;2.07;;;;;;;;;;5057371;28;20186;-76
2022/09/22 00:06:16;;;;;;;2.30;2.17;;;;;;;;;;5071728;28;20200;-76
2022/09/22 00:08:43;;;;;;;2.43;2.23;;;;;;;;;;5068971;28;20221;-76
2022/09/22 00:11:15;;;;;;;3.30;2.10;;;;;;;;;;5068356;28;20232;-76
2022/09/22 00:13:42;;;;;;;2.53;2.33;;;;;;;;;;5067707;28;20186;-76
2022/09/22 00:16:08;;;;;;;2.77;2.20;;;;;;;;;;5062649;28;20190;-76
2022/09/22 00:18:33;;;;;;;3.13;2.10;;;;;;;;;;5068451;28;20172;-76
2022/09/22 00:21:04;;;;;;;3.10;2.03;;;;;;;;;;5061006;28;20307;-76
2022/09/22 00:23:31;;;;;;;2.87;2.30;;;;;;;;;;5071263;28;20282;-76
2022/09/22 00:26:16;;;;;;;2.63;2.40;;;;;;;;;;5073509;28;20264;-76
2022/09/22 00:28:43;;;;;;;2.53;2.33;;;;;;;;;;5066284;28;20177;-76
2022/09/22 00:31:16;;;;;;;2.60;1.80;;;;;;;;;;5069449;28;20183;-76
2022/09/22 00:33:42;;;;;;;3.37;2.23;;;;;;;;;;5058410;28;20176;-76
2022/09/22 00:36:08;;;;;;;2.10;1.90;;;;;;;;;;5062921;28;20199;-76
2022/09/22 00:38:33;;;;;;;3.03;2.20;;;;;;;;;;5065905;28;21710;-76
2022/09/22 00:41:00;;;;;;;2.97;2.20;;;;;;;;;;5067435;28;20208;-76
2022/09/22 00:43:26;;;;;;;1.93;1.77;;;;;;;;;;5069651;28;20176;-76
2022/09/22 00:45:54;;;;;;;4.20;2.50;;;;;;;;;;5069397;28;20204;-76
2022/09/22 00:48:21;;;;;;;2.40;2.20;;;;;;;;;;5064512;28;20178;-76
2022/09/22 00:50:48;;;;;;;2.30;2.10;;;;;;;;;;5068789;28;20184;-76
2022/09/22 00:53:15;;;;;;;2.40;2.10;;;;;;;;;;5060724;28;20254;-76
2022/09/22 00:55:40;;;;;;;2.40;2.20;;;;;;;;;;5064620;28;20241;-76
2022/09/22 00:58:08;;;;;;;2.30;2.07;;;;;;;;;;5062134;28;20178;-76
2022/09/22 01:00:33;;;;;;;2.20;2.00;;;;;;;;;;5069625;28;20439;-76
2022/09/22 01:02:59;;;;;;;4.10;2.40;;;;;;;;;;5061605;28;20178;-76
2022/09/22 01:05:26;;;;;;;2.33;2.13;;;;;;;;;;5065862;28;20208;-76
2022/09/22 01:07:51;;;;;;;6.43;2.80;;;;;;;;;;5064798;28;20235;-76
2022/09/22 01:10:17;;;;;;;2.63;2.30;;;;;;;;;;5064285;28;20194;-76
2022/09/22 01:12:47;;;;;;;2.60;2.40;;;;;;;;;;5065496;28;20272;-76
2022/09/22 01:15:19;;;;;;;3.10;2.20;;;;;;;;;;5059825;28;20181;-76
2022/09/22 01:17:47;;;;;;;2.63;2.37;;;;;;;;;;5064887;28;20195;-76
2022/09/22 01:20:15;;;;;;;2.40;2.10;;;;;;;;;;5064205;28;20239;-76
2022/09/22 01:22:45;;;;;;;3.17;1.93;;;;;;;;;;5071823;28;20178;-76
2022/09/22 01:25:29;;;;;;;3.23;2.60;;;;;;;;;;5065580;28;20261;-76
2022/09/22 01:28:06;;;;;;;2.90;1.77;;;;;;;;;;5062192;28;20216;-76
2022/09/22 01:30:37;;;;;;;2.53;2.33;;;;;;;;;;5063001;28;20187;-76
2022/09/22 01:33:15;;;;;;;3.23;2.23;;;;;;;;;;5065433;28;20185;-76
2022/09/22 01:35:46;;;;;;;2.37;2.17;;;;;;;;;;5062940;28;20343;-76
2022/09/22 01:38:14;;;;;;;4.10;2.07;;;;;;;;;;5067133;28;20189;-76
2022/09/22 01:40:56;;;;;;;2.63;2.20;;;;;;;;;;5058399;28;20237;-76
2022/09/22 01:43:31;;;;;;;2.50;2.13;;;;;;;;;;5062148;28;20207;-76
2022/09/22 01:45:58;;;;;;;2.57;2.37;;;;;;;;;;5069558;28;20185;-76
2022/09/22 01:48:26;;;;;;;2.53;2.27;;;;;;;;;;5063900;28;20176;-76
2022/09/22 01:51:04;;;;;;;2.40;2.20;;;;;;;;;;5066470;28;20280;-76
2022/09/22 01:53:33;;;;;;;2.30;2.00;;;;;;;;;;5058237;28;20192;-76
2022/09/22 01:56:01;;;;;;;3.53;2.10;;;;;;;;;;5081413;28;20182;-76
2022/09/22 01:58:46;;;;;;;2.70;2.50;;;;;;;;;;5065532;28;20191;-76
2022/09/22 02:01:13;;;;;;;2.07;1.87;;;;;;;;;;5059960;28;20211;-76
2022/09/22 02:03:45;;;;;;;2.30;2.10;;;;;;;;;;5063307;28;20197;-76
2022/09/22 02:06:16;;;;;;;2.50;1.77;;;;;;;;;;5062082;28;20227;-76
2022/09/22 02:08:45;;;;;;;2.60;2.20;;;;;;;;;;5064025;28;20190;-76
2022/09/22 02:11:12;;;;;;;2.83;2.10;;;;;;;;;;5065910;28;20272;-76
2022/09/22 02:13:38;;;;;;;2.47;2.27;;;;;;;;;;5055025;28;20189;-76
2022/09/22 02:16:04;;;;;;;3.17;2.00;;;;;;;;;;5067295;28;20198;-76
2022/09/22 02:18:34;;;;;;;2.57;2.37;;;;;;;;;;5066044;28;20178;-76
2022/09/22 02:21:00;;;;;;;2.33;1.97;;;;;;;;;;5057358;28;20237;-76
2022/09/22 02:23:26;;;;;;;3.00;2.13;;;;;;;;;;5069806;28;20222;-76
2022/09/22 02:25:52;;;;;;;1.97;1.87;;;;;;;;;;5065155;28;20179;-76
2022/09/22 02:28:19;;;;;;;2.07;1.83;;;;;;;;;;5067179;28;20419;-76
2022/09/22 02:30:46;;;;;;;2.10;2.00;;;;;;;;;;5054376;28;20185;-76
2022/09/22 02:33:13;;;;;;;3.07;2.27;;;;;;;;;;5064838;28;20265;-76
2022/09/22 02:35:39;;;;;;;3.73;2.57;;;;;;;;;;5066686;28;20178;-76
2022/09/22 02:38:10;;;;;;;2.67;2.20;;;;;;;;;;5059318;28;20194;-76
2022/09/22 02:40:38;;;;;;;2.03;1.90;;;;;;;;;;5059777;28;20231;-76
2022/09/22 02:43:17;;;;;;;2.63;1.90;;;;;;;;;;5061738;28;20224;-76
2022/09/22 02:45:48;;;;;;;2.37;2.03;;;;;;;;;;5067945;28;20203;-76
2022/09/22 02:48:16;;;;;;;3.47;2.10;;;;;;;;;;5070722;28;20288;-76
2022/09/22 02:50:41;;;;;;;2.70;2.50;;;;;;;;;;5067064;28;20184;-76
2022/09/22 02:53:11;;;;;;;2.33;2.10;;;;;;;;;;5069182;28;20197;-76
2022/09/22 02:55:37;;;;;;;8.00;2.17;;;;;;;;;;5070381;28;20185;-76
2022/09/22 02:58:02;;;;;;;2.80;2.30;;;;;;;;;;5073735;28;20189;-76
2022/09/22 03:00:27;;;;;;;2.83;2.10;;;;;;;;;;5064439;28;20215;-76
2022/09/22 03:02:53;;;;;;;4.60;2.30;;;;;;;;;;5068095;28;20171;-76
2022/09/22 03:05:18;;;;;;;2.70;2.10;;;;;;;;;;5067466;28;20232;-76
2022/09/22 03:07:43;;;;;;;2.60;2.17;;;;;;;;;;5069412;28;20180;-76
2022/09/22 03:10:09;;;;;;;2.57;2.23;;;;;;;;;;5057678;28;20186;-76
2022/09/22 03:12:34;;;;;;;1.90;1.80;;;;;;;;;;5072917;28;20225;-76
2022/09/22 03:14:59;;;;;;;2.73;2.53;;;;;;;;;;5070020;28;20234;-76
2022/09/22 03:17:25;;;;;;;3.73;2.17;;;;;;;;;;5064974;28;20249;-76
2022/09/22 03:19:50;;;;;;;2.67;2.47;;;;;;;;;;5060611;28;20203;-76
2022/09/22 03:22:15;;;;;;;2.90;2.47;;;;;;;;;;5067929;28;20183;-76
2022/09/22 03:24:40;;;;;;;2.57;2.30;;;;;;;;;;5066089;28;20223;-76
2022/09/22 03:27:06;;;;;;;2.80;2.30;;;;;;;;;;5062096;28;20175;-76
2022/09/22 03:29:31;;;;;;;3.27;2.53;;;;;;;;;;5058610;28;20208;-76
2022/09/22 03:31:56;;;;;;;4.10;2.20;;;;;;;;;;5063186;28;20181;-76
2022/09/22 03:34:21;;;;;;;2.80;2.50;;;;;;;;;;5065668;28;20186;-76
2022/09/22 03:36:47;;;;;;;2.50;2.30;;;;;;;;;;5070121;28;20185;-76
2022/09/22 03:39:12;;;;;;;2.57;2.37;;;;;;;;;;5066945;28;20394;-76
2022/09/22 03:41:37;;;;;;;3.30;3.00;;;;;;;;;;5068492;28;20229;-76
2022/09/22 03:44:03;;;;;;;3.23;2.87;;;;;;;;;;5065208;28;20182;-76
2022/09/22 03:46:29;;;;;;;4.10;2.43;;;;;;;;;;5066469;28;20178;-76
2022/09/22 03:48:54;;;;;;;3.47;2.87;;;;;;;;;;5058197;28;20267;-76
2022/09/22 03:51:19;;;;;;;2.77;2.40;;;;;;;;;;5064949;28;20214;-76
2022/09/22 03:53:45;;;;;;;2.90;2.60;;;;;;;;;;5063469;28;20212;-76
2022/09/22 03:56:11;;;;;;;2.93;2.63;;;;;;;;;;5071586;28;20169;-76
2022/09/22 03:58:37;;;;;;;3.20;2.87;;;;;;;;;;5059993;28;20197;-76
2022/09/22 04:01:03;;;;;;;3.00;2.70;;;;;;;;;;5061008;28;20238;-76
2022/09/22 04:03:29;;;;;;;3.60;3.30;;;;;;;;;;5063622;28;20205;-76
2022/09/22 04:05:55;;;;;;;4.47;3.77;;;;;;;;;;5061485;28;20193;-76
2022/09/22 04:08:20;;;;;;;3.63;3.33;;;;;;;;;;5056120;28;20185;-76
2022/09/22 04:10:46;;;;;;;3.27;2.97;;;;;;;;;;5061145;28;20181;-76
2022/09/22 04:13:12;;;;;;;3.03;2.73;;;;;;;;;;5063081;28;20187;-76
2022/09/22 04:15:37;;;;;;;3.63;2.67;;;;;;;;;;5062544;28;20209;-76
2022/09/22 04:18:02;;;;;;;4.70;3.60;;;;;;;;;;5059074;28;20198;-76
2022/09/22 04:20:29;;;;;;;6.27;5.77;;;;;;;;;;5062712;28;20197;-76
2022/09/22 04:22:54;;;;;;;4.00;3.70;;;;;;;;;;5070138;28;20186;-76
2022/09/22 04:25:19;;;;;;;3.60;3.27;;;;;;;;;;5068055;28;20181;-76
2022/09/22 04:27:44;;;;;;;4.77;3.77;;;;;;;;;;5068201;28;20202;-76
2022/09/22 04:30:10;;;;;;;3.97;3.27;;;;;;;;;;5067462;28;20170;-76
2022/09/22 04:32:35;;;;;;;3.70;3.40;;;;;;;;;;5066682;28;20266;-76
2022/09/22 04:35:00;;;;;;;4.60;3.50;;;;;;;;;;5057994;28;20185;-76
2022/09/22 04:37:26;;;;;;;4.47;3.70;;;;;;;;;;5069922;28;20220;-76
2022/09/22 04:39:53;;;;;;;5.17;2.97;;;;;;;;;;5066778;28;20225;-76
2022/09/22 04:42:18;;;;;;;3.83;3.27;;;;;;;;;;5066128;28;20220;-76
2022/09/22 04:44:44;;;;;;;3.60;2.60;;;;;;;;;;5062626;28;20182;-76
2022/09/22 04:47:09;;;;;;;3.03;2.73;;;;;;;;;;5064457;28;20183;-76
2022/09/22 04:49:35;;;;;;;3.93;3.03;;;;;;;;;;5064362;28;20190;-76
2022/09/22 04:52:00;;;;;;;3.50;3.20;;;;;;;;;;5064286;28;20257;-76
2022/09/22 04:54:25;;;;;;;3.40;3.10;;;;;;;;;;5074556;28;20232;-74
2022/09/22 04:56:50;;;;;;;4.83;3.03;;;;;;;;;;5064075;28;20188;-76
2022/09/22 04:59:16;;;;;;;4.77;3.37;;;;;;;;;;5069382;28;20170;-76
2022/09/22 05:01:41;;;;;;;3.53;3.03;;;;;;;;;;5058414;28;20230;-76
2022/09/22 05:04:06;;;;;;;3.90;3.50;;;;;;;;;;5066756;28;20175;-76
2022/09/22 05:06:31;;;;;;;4.17;3.43;;;;;;;;;;5064041;28;20189;-76
2022/09/22 05:08:57;;;;;;;3.50;3.20;;;;;;;;;;5060663;28;20209;-76
2022/09/22 05:11:23;;;;;;;3.50;3.20;;;;;;;;;;5066355;28;20177;-76
2022/09/22 05:13:49;;;;;;;4.00;3.20;;;;;;;;;;5060324;28;20183;-76
2022/09/22 05:16:15;;;;;;;3.90;3.50;;;;;;;;;;5053921;28;20183;-76
2022/09/22 05:18:40;;;;;;;3.03;2.70;;;;;;;;;;5064149;28;20236;-76
2022/09/22 05:21:06;;;;;;;3.30;3.00;;;;;;;;;;5058621;28;20205;-74
2022/09/22 05:23:31;;;;;;;5.77;3.90;;;;;;;;;;5067527;28;20170;-76
2022/09/22 05:25:57;;;;;;;4.20;3.70;;;;;;;;;;5067246;28;20174;-76
2022/09/22 05:28:23;;;;;;;5.80;3.73;;;;;;;;;;5064908;28;20171;-76
2022/09/22 05:30:48;;;;;;;5.97;4.50;;;;;;;;;;5076455;28;20228;-75
2022/09/22 05:33:13;;;;;;;6.10;4.00;;;;;;;;;;5067060;28;20227;-76
2022/09/22 05:35:39;;;;;;;4.37;3.90;;;;;;;;;;5061944;28;20181;-76
2022/09/22 05:38:04;;;;;;;4.37;3.73;;;;;;;;;;5068156;28;20178;-76
2022/09/22 05:40:29;;;;;;;8.97;3.27;;;;;;;;;;5063764;28;20228;-75
2022/09/22 05:42:55;;;;;;;4.83;4.33;;;;;;;;;;5067426;28;20177;-76
2022/09/22 05:45:20;;;;;;;3.93;3.53;;;;;;;;;;5067244;28;20166;-76
2022/09/22 05:47:46;;;;;;;3.73;3.20;;;;;;;;;;5064596;28;20194;-75
2022/09/22 05:50:12;;;;;;;3.70;3.30;;;;;;;;;;5065126;28;20177;-76
2022/09/22 05:52:37;;;;;;;13.13;11.97;;;;;;;;;;5065686;28;20193;-76
2022/09/22 05:55:03;;;;;;;4.87;4.37;;;;;;;;;;5064141;28;20173;-76
2022/09/22 05:57:30;;;;;;;5.47;3.60;;;;;;;;;;5067597;28;20214;-76
2022/09/22 05:59:55;;;;;;;5.60;4.13;;;;;;;;;;5062461;28;20193;-76
2022/09/22 06:02:22;;;;;;;5.60;3.73;;;;;;;;;;5089073;28;20178;-76
2022/09/22 06:04:47;;;;;;;4.30;3.90;;;;;;;;;;5079669;28;20201;-76
2022/09/22 06:07:12;;;;;;;5.50;5.00;;;;;;;;;;5078804;28;20201;-76
2022/09/22 06:09:38;;;;;;;6.23;5.13;;;;;;;;;;5081365;28;20185;-76
2022/09/22 06:12:03;;;;;;;4.97;4.57;;;;;;;;;;5075559;28;20178;-76
2022/09/22 06:14:28;;;;;;;6.00;4.57;;;;;;;;;;5081295;28;20178;-76
2022/09/22 06:16:54;;;;;;;5.80;5.10;;;;;;;;;;5072813;28;20173;-75
2022/09/22 06:19:20;;;;;;;7.47;4.97;;;;;;;;;;5066435;28;20188;-76
2022/09/22 06:21:45;;;;;;;4.73;4.00;;;;;;;;;;5064438;28;20283;-76
2022/09/22 06:24:11;;;;;;;5.20;4.07;;;;;;;;;;5066042;28;20202;-76
2022/09/22 06:26:36;;;;;;;5.63;4.37;;;;;;;;;;5072401;28;20162;-76
2022/09/22 06:29:01;;;;;;;5.83;4.30;;;;;;;;;;5062962;28;20271;-76
2022/09/22 06:31:27;;;;;;;8.40;6.03;;;;;;;;;;5069182;28;20209;-75
2022/09/22 06:33:53;;;;;;;13.33;10.20;;;;;;;;;;5068704;28;20224;-76
2022/09/22 06:36:29;;;;;;;6.17;5.47;;;;;;;;;;5074310;28;20173;-75
2022/09/22 06:38:57;;;;;;;4.47;4.07;;;;;;;;;;5067284;28;20218;-76
2022/09/22 06:41:23;;;;;;;5.87;4.47;;;;;;;;;;5072507;28;20197;-75
2022/09/22 06:43:49;;;;;;;4.70;4.20;;;;;;;;;;5062325;28;20180;-76
2022/09/22 06:46:17;;;;;;;4.73;3.77;;;;;;;;;;5072813;28;20182;-75
2022/09/22 06:48:42;;;;;;;4.50;3.80;;;;;;;;;;5061878;28;20350;-76
2022/09/22 06:51:08;;;;;;;5.30;4.20;;;;;;;;;;5071743;28;20192;-75
2022/09/22 06:53:33;;;;;;;4.13;3.73;;;;;;;;;;5072243;28;20206;-76
2022/09/22 06:56:02;;;;;;;4.27;3.57;;;;;;;;;;5071074;28;20187;-75
2022/09/22 06:58:27;;;;;;;4.60;3.77;;;;;;;;;;5070363;28;20168;-75
2022/09/22 07:00:53;;;;;;;4.30;3.80;;;;;;;;;;5062783;28;20214;-75
2022/09/22 07:03:20;;;;;;;4.30;3.67;;;;;;;;;;5072378;28;20229;-75
2022/09/22 07:05:56;;;;;;;3.70;2.80;;;;;;;;;;5068116;28;20286;-75
2022/09/22 07:08:22;;;;;;;4.33;2.67;;;;;;;;;;5068070;28;20174;-75
2022/09/22 07:10:50;;;;;;;2.83;2.63;;;;;;;;;;5078205;28;20194;-75
2022/09/22 07:13:16;;;;;;;3.43;3.10;;;;;;;;;;5069769;28;20259;-75
2022/09/22 07:15:42;;;;;;;3.30;3.00;;;;;;;;;;5071042;28;20268;-75
2022/09/22 07:18:08;;;;;;;3.07;2.50;;;;;;;;;;5074254;28;20181;-75
2022/09/22 07:20:34;;;;;;;2.73;2.53;;;;;;;;;;5070585;28;20193;-75
2022/09/22 07:22:59;;;;;;;3.33;3.03;;;;;;;;;;5071460;28;20234;-75
2022/09/22 07:25:26;;;;;;;3.33;3.03;;;;;;;;;;5067834;28;20245;-75
2022/09/22 07:27:52;;;;;;;3.17;2.87;;;;;;;;;;5082501;28;20183;-75
2022/09/22 07:30:19;;;;;;;2.53;2.30;;;;;;;;;;5073055;28;20172;-75
2022/09/22 07:32:44;;;;;;;3.90;2.30;;;;;;;;;;5070422;28;20234;-75
2022/09/22 07:35:12;;;;;;;3.30;2.73;;;;;;;;;;5072908;28;20180;-75
2022/09/22 07:37:40;;;;;;;3.30;2.40;;;;;;;;;;5068791;28;20232;-75
2022/09/22 07:40:06;;;;;;;2.37;2.10;;;;;;;;;;5065761;28;20223;-75
2022/09/22 07:42:31;;;;;;;3.00;2.50;;;;;;;;;;5070669;28;20171;-75
2022/09/22 07:45:11;;;;;;;4.13;3.37;;;;;;;;;;5073438;28;20238;-75
2022/09/22 07:50:21;;;;;;;2.30;2.10;;;;;;;;;;5071109;28;20182;-75
2022/09/22 07:52:50;;;;;;;3.00;1.90;;;;;;;;;;5076411;28;20206;-75
2022/09/22 07:55:15;;;;;;;2.20;2.00;;;;;;;;;;5061794;28;20184;-75
2022/09/22 07:57:41;;;;;;;2.67;1.80;;;;;;;;;;5071345;28;20191;-75
2022/09/22 08:00:06;;;;;;;2.93;2.17;;;;;;;;;;5078007;28;20203;-75
2022/09/22 08:02:32;;;;;;;2.30;2.07;;;;;;;;;;5071789;28;20169;-75
2022/09/22 08:05:01;;;;;;;2.03;1.83;;;;;;;;;;5071541;28;20200;-75
2022/09/22 08:07:29;;;;;;;2.00;1.67;;;;;;;;;;5076133;28;20316;-75
2022/09/22 08:09:54;;;;;;;2.53;1.63;;;;;;;;;;5074861;28;20205;-75
2022/09/22 08:12:20;;;;;;;1.70;1.60;;;;;;;;;;5073153;28;20262;-75
2022/09/22 08:14:46;;;;;;;3.30;1.80;;;;;;;;;;5070667;28;20314;-74
2022/09/22 08:17:11;;;;;;;1.30;1.20;;;;;;;;;;5066825;28;20171;-75
2022/09/22 08:19:36;;;;;;;1.67;1.57;;;;;;;;;;5068404;28;20177;-75
2022/09/22 08:22:02;;;;;;;1.80;1.70;;;;;;;;;;5076595;28;20174;-75
2022/09/22 08:24:27;;;;;;;2.27;1.50;;;;;;;;;;5092021;28;20190;-75
2022/09/22 08:26:54;;;;;;;1.67;1.57;;;;;;;;;;5074634;28;20183;-75
2022/09/22 08:29:20;;;;;;;4.50;1.87;;;;;;;;;;5082356;28;20186;-75
2022/09/22 08:31:46;;;;;;;1.60;1.50;;;;;;;;;;5068970;28;20180;-75
2022/09/22 08:34:12;;;;;;;1.43;1.30;;;;;;;;;;5067779;28;20381;-75
2022/09/22 08:36:38;;;;;;;1.70;1.60;;;;;;;;;;5067439;28;20242;-75
2022/09/22 08:39:04;;;;;;;4.50;1.73;;;;;;;;;;5060868;28;20222;-75
2022/09/22 08:41:37;;;;;;;3.00;1.73;;;;;;;;;;5068091;28;20287;-75
2022/09/22 08:44:02;;;;;;;1.47;1.33;;;;;;;;;;5067419;28;20173;-75
2022/09/22 08:46:31;;;;;;;1.53;1.43;;;;;;;;;;5073028;28;20165;-75
2022/09/22 08:51:54;;;;;;;2.33;1.57;;;;;;;;;;5068744;28;20272;-75
2022/09/22 08:54:20;;;;;;;1.67;1.57;;;;;;;;;;5066591;28;20204;-75
2022/09/22 08:56:53;;;;;;;2.73;1.80;;;;;;;;;;5064136;28;20174;-75
2022/09/22 08:59:23;;;;;;;1.80;1.70;;;;;;;;;;5069018;28;20192;-75
2022/09/22 09:02:07;;;;;;;4.50;4.20;;;;;;;;;;5071711;28;20205;-75
2022/09/22 09:04:43;;;;;;;1.67;1.57;;;;;;;;;;5066421;28;20170;-75
2022/09/22 09:07:14;;;;;;;1.80;1.70;;;;;;;;;;5074569;28;20181;-75
2022/09/22 09:09:50;;;;;;;3.17;1.90;;;;;;;;;;5083128;28;20259;-75
2022/09/22 09:12:18;;;;;;;2.57;1.80;;;;;;;;;;5069638;28;20273;-75
2022/09/22 09:14:43;;;;;;;1.70;1.60;;;;;;;;;;5070966;28;20175;-75
2022/09/22 09:17:13;;;;;;;18.03;16.90;;;;;;;;;;5070671;28;20260;-75
2022/09/22 09:20:04;;;;;;;1.50;1.40;;;;;;;;;;5063797;28;20212;-75
2022/09/22 09:22:34;;;;;;;1.77;1.57;;;;;;;;;;5048499;28;20195;-75
2022/09/22 09:25:08;;;;;;;2.53;1.43;;;;;;;;;;5067981;28;20173;-75
2022/09/22 09:27:45;;;;;;;1.70;1.60;;;;;;;;;;5068552;28;20272;-76
2022/09/22 09:30:16;;;;;;;3.33;1.80;;;;;;;;;;5066404;28;20170;-76
2022/09/22 09:32:42;;;;;;;1.73;1.63;;;;;;;;;;5057142;28;20173;-76
2022/09/22 09:35:11;;;;;;;2.23;1.77;;;;;;;;;;5068284;28;20323;-75
2022/09/22 09:37:36;;;;;;;2.63;1.40;;;;;;;;;;5067222;28;20177;-76
2022/09/22 09:40:03;;;;;;;5.70;4.20;;;;;;;;;;5064764;28;20226;-75
2022/09/22 09:42:32;;;;;;;2.30;1.70;;;;;;;;;;5062234;28;20187;-75
2022/09/22 09:45:01;;;;;;;2.13;1.50;;;;;;;;;;5066048;28;20174;-76
2022/09/22 09:47:46;;;;;;;2.93;1.30;;;;;;;;;;5075095;28;20213;-75
2022/09/22 09:50:12;;;;;;;2.93;1.80;;;;;;;;;;5063673;28;20234;-76
2022/09/22 09:52:37;;;;;;;3.90;2.77;;;;;;;;;;5079510;28;20275;-75
2022/09/22 09:55:13;;;;;;;3.87;1.73;;;;;;;;;;5069763;28;20211;-76
2022/09/22 09:57:58;;;;;;;2.67;2.47;;;;;;;;;;5063852;28;20178;-75
2022/09/22 10:00:30;;;;;;;4.37;2.57;;;;;;;;;;5069208;28;20196;-76
2022/09/22 10:03:01;;;;;;;1.70;1.60;;;;;;;;;;5078640;28;20176;-75
2022/09/22 10:05:27;;;;;;;1.90;1.60;;;;;;;;;;5066404;28;20202;-76
2022/09/22 10:07:57;;;;;;;3.40;2.10;;;;;;;;;;5068634;28;20566;-76
2022/09/22 10:10:28;;;;;;;1.67;1.57;;;;;;;;;;5068669;28;20177;-75
2022/09/22 10:13:02;;;;;;;1.93;1.73;;;;;;;;;;5065961;28;20180;-76
2022/09/22 10:15:27;;;;;;;2.00;1.50;;;;;;;;;;5080058;28;20227;-76
2022/09/22 10:17:53;;;;;;;1.80;1.33;;;;;;;;;;5070607;28;20195;-76
2022/09/22 10:20:25;;;;;;;1.70;1.60;;;;;;;;;;5070854;28;20208;-76
2022/09/22 10:22:51;;;;;;;2.60;1.40;;;;;;;;;;5073404;28;20200;-76
2022/09/22 10:25:22;;;;;;;2.10;1.40;;;;;;;;;;5081535;28;20215;-76
2022/09/22 10:28:15;;;;;;;3.13;1.77;;;;;;;;;;5070369;28;20179;-76
2022/09/22 10:30:41;;;;;;;1.27;1.20;;;;;;;;;;5069801;28;20174;-76
2022/09/22 10:33:10;;;;;;;1.40;1.30;;;;;;;;;;5067461;28;20248;-76
2022/09/22 10:35:39;;;;;;;1.93;1.30;;;;;;;;;;5062543;28;20177;-76
2022/09/22 10:38:11;;;;;;;1.40;1.30;;;;;;;;;;5073373;28;20180;-76
2022/09/22 10:40:38;;;;;;;2.40;1.70;;;;;;;;;;5054558;28;20225;-76
2022/09/22 10:43:05;;;;;;;2.00;1.40;;;;;;;;;;5059407;28;20234;-76
2022/09/22 10:45:57;;;;;;;1.60;1.50;;;;;;;;;;5065136;28;20209;-76
2022/09/22 10:48:22;;;;;;;2.40;1.40;;;;;;;;;;5065319;28;20181;-76
2022/09/22 10:51:06;;;;;;;2.90;1.60;;;;;;;;;;5064621;28;20179;-76
2022/09/22 10:53:51;;;;;;;5.43;1.43;;;;;;;;;;5060755;28;20180;-76
2022/09/22 10:56:36;;;;;;;1.40;1.30;;;;;;;;;;5071377;28;20181;-76
2022/09/22 10:59:07;;;;;;;7.20;1.43;;;;;;;;;;5062881;28;20448;-76
2022/09/22 11:01:35;;;;;;;1.77;1.40;;;;;;;;;;5062028;28;20187;-76
2022/09/22 11:04:10;;;;;;;2.10;1.60;;;;;;;;;;5070008;28;20170;-76
2022/09/22 11:12:50;;;;;;;1.50;1.27;;;;;;;;;;5067746;28;20267;-76
2022/09/22 11:15:24;;;;;;;2.37;1.30;;;;;;;;;;5067750;28;20174;-76
2022/09/22 11:18:08;;;;;;;3.03;1.50;;;;;;;;;;5075590;28;20185;-76
2022/09/22 11:20:35;;;;;;;1.50;1.30;;;;;;;;;;5068303;28;20268;-76
2022/09/22 11:23:20;;;;;;;8.43;7.83;;;;;;;;;;5071925;28;20224;-76
2022/09/22 11:25:45;;;;;;;3.03;1.63;;;;;;;;;;5063538;28;20170;-76
2022/09/22 11:28:13;;;;;;;4.23;1.30;;;;;;;;;;5073862;28;20289;-77
2022/09/22 11:30:38;;;;;;;1.37;1.27;;;;;;;;;;5081272;28;20279;-76
2022/09/22 11:33:20;;;;;;;2.00;1.37;;;;;;;;;;5070279;28;20203;-77
2022/09/22 11:35:56;;;;;;;1.83;1.47;;;;;;;;;;5068283;28;20176;-77
2022/09/22 11:38:40;;;;;;;1.60;1.50;;;;;;;;;;5078751;28;20161;-77
2022/09/22 11:41:24;;;;;;;5.70;1.80;;;;;;;;;;5066580;28;20265;-76
2022/09/22 11:43:59;;;;;;;2.30;1.93;;;;;;;;;;5064197;28;20182;-76
2022/09/22 11:46:33;;;;;;;1.57;1.47;;;;;;;;;;5085483;28;20199;-77
2022/09/22 11:49:14;;;;;;;3.43;1.60;;;;;;;;;;5068150;28;20176;-76
2022/09/22 11:51:54;;;;;;;1.60;1.50;;;;;;;;;;5073719;28;20176;-77
2022/09/22 11:54:19;;;;;;;2.33;1.40;;;;;;;;;;5064383;28;20183;-77
2022/09/22 11:56:49;;;;;;;1.70;1.60;;;;;;;;;;5078351;28;20179;-77
2022/09/22 11:59:17;;;;;;;2.73;1.77;;;;;;;;;;5076817;28;20181;-77
2022/09/22 12:01:43;;;;;;;1.50;1.40;;;;;;;;;;5074068;28;20195;-77
2022/09/22 12:04:28;;;;;;;3.67;2.37;;;;;;;;;;5061107;28;20187;-77
2022/09/22 12:06:55;;;;;;;1.87;1.77;;;;;;;;;;5032969;28;20200;-77
2022/09/22 12:09:33;;;;;;;1.70;1.20;;;;;;;;;;5079673;28;20247;-78
2022/09/22 12:12:00;;;;;;;2.70;1.47;;;;;;;;;;5073948;28;20184;-77
2022/09/22 12:14:26;;;;;;;2.23;1.50;;;;;;;;;;5075722;28;20428;-77
2022/09/22 12:17:00;;;;;;;1.97;1.57;;;;;;;;;;5075165;28;20175;-77
2022/09/22 12:19:52;;;;;;;3.07;1.47;;;;;;;;;;5068332;28;20185;-77
2022/09/22 12:22:17;;;;;;;2.77;1.53;;;;;;;;;;5073813;28;20185;-78
2022/09/22 12:24:46;;;;;;;2.43;1.63;;;;;;;;;;5074210;28;20169;-77
2022/09/22 12:27:15;;;;;;;2.03;1.57;;;;;;;;;;5070087;28;20176;-78
2022/09/22 12:29:41;;;;;;;2.33;1.70;;;;;;;;;;5076100;28;20216;-77
2022/09/22 12:32:19;;;;;;;2.87;1.53;;;;;;;;;;5066428;28;20208;-78
2022/09/22 12:34:44;;;;;;;2.90;1.50;;;;;;;;;;5069549;28;20199;-78
2022/09/22 12:37:12;;;;;;;2.83;1.50;;;;;;;;;;5070648;28;20188;-77
2022/09/22 12:39:41;;;;;;;2.33;1.33;;;;;;;;;;5067885;28;20236;-77
2022/09/22 12:42:17;;;;;;;1.93;1.43;;;;;;;;;;5067345;28;20217;-78
2022/09/22 12:44:50;;;;;;;2.50;1.40;;;;;;;;;;5059354;28;20184;-75
2022/09/22 12:47:21;;;;;;;1.63;1.40;;;;;;;;;;5065365;28;20177;-81
2022/09/22 12:49:49;;;;;;;2.03;1.50;;;;;;;;;;5071667;28;20187;-81
2022/09/22 12:52:33;;;;;;;1.80;1.53;;;;;;;;;;5080536;28;20209;-81
2022/09/22 12:55:15;;;;;;;1.67;1.47;;;;;;;;;;5060509;28;20173;-77
2022/09/22 12:57:44;;;;;;;2.50;1.50;;;;;;;;;;5069811;28;20188;-81
2022/09/22 13:00:19;;;;;;;1.67;1.50;;;;;;;;;;5041218;28;20202;-81
2022/09/22 13:02:46;;;;;;;2.00;1.80;;;;;;;;;;5059279;28;20180;-81
2022/09/22 13:05:23;;;;;;;1.80;1.70;;;;;;;;;;5063547;28;20225;-81
2022/09/22 13:07:49;;;;;;;2.13;1.70;;;;;;;;;;5064946;28;20196;-82
2022/09/22 13:10:23;;;;;;;1.60;1.50;;;;;;;;;;5064958;28;20289;-82
2022/09/22 13:13:04;;;;;;;1.90;1.80;;;;;;;;;;5075899;28;20279;-81
2022/09/22 13:15:31;;;;;;;1.40;1.30;;;;;;;;;;5070078;28;20201;-82
2022/09/22 13:17:57;;;;;;;2.10;1.40;;;;;;;;;;5063062;28;20178;-82
2022/09/22 13:20:30;;;;;;;1.63;1.50;;;;;;;;;;5065273;28;20209;-82
2022/09/22 13:23:04;;;;;;;2.10;1.80;;;;;;;;;;5065928;28;20188;-81
2022/09/22 13:25:30;;;;;;;1.77;1.67;;;;;;;;;;5063629;28;20206;-81
2022/09/22 13:28:24;;;;;;;1.50;1.40;;;;;;;;;;5061219;28;20234;-82
2022/09/22 13:31:02;;;;;;;2.03;1.23;;;;;;;;;;5054074;28;20212;-82
2022/09/22 13:33:31;;;;;;;2.07;1.87;;;;;;;;;;5065543;28;20179;-82
2022/09/22 13:36:02;;;;;;;1.53;1.43;;;;;;;;;;5063069;28;20207;-82
2022/09/22 13:38:31;;;;;;;3.23;1.80;;;;;;;;;;5060476;28;20234;-82
2022/09/22 13:40:56;;;;;;;1.77;1.50;;;;;;;;;;5082788;28;20196;-82
2022/09/22 13:43:24;;;;;;;4.07;1.50;;;;;;;;;;5066739;28;20182;-82
2022/09/22 13:45:50;;;;;;;2.93;1.50;;;;;;;;;;5063918;28;20180;-82
2022/09/22 13:48:16;;;;;;;1.33;1.23;;;;;;;;;;5067518;28;20202;-82
2022/09/22 13:50:49;;;;;;;2.10;1.30;;;;;;;;;;5062482;28;20514;-82
2022/09/22 13:53:16;;;;;;;2.10;1.60;;;;;;;;;;5066897;28;20201;-83
2022/09/22 13:55:42;;;;;;;1.60;1.50;;;;;;;;;;5062405;28;20180;-82
2022/09/22 13:58:11;;;;;;;2.13;1.30;;;;;;;;;;5057503;28;20186;-82
2022/09/22 14:00:41;;;;;;;1.47;1.37;;;;;;;;;;5065610;28;20181;-83
2022/09/22 14:03:16;;;;;;;1.20;1.10;;;;;;;;;;5065103;28;20196;-83
2022/09/22 14:05:41;;;;;;;1.33;1.23;;;;;;;;;;5067261;28;20201;-80
2022/09/22 14:08:12;;;;;;;1.70;1.60;;;;;;;;;;5066075;28;20256;-80
2022/09/22 14:10:40;;;;;;;1.20;1.10;;;;;;;;;;5067935;28;20236;-80
2022/09/22 14:13:26;;;;;;;1.73;1.33;;;;;;;;;;5075880;28;20223;-80
2022/09/22 14:15:51;;;;;;;1.40;1.30;;;;;;;;;;5064023;28;20191;-80
2022/09/22 14:18:23;;;;;;;1.57;1.20;;;;;;;;;;5060661;28;20264;-80
2022/09/22 14:20:51;;;;;;;2.17;1.70;;;;;;;;;;5081012;28;20265;-80
2022/09/22 14:23:37;;;;;;;2.00;1.80;;;;;;;;;;5065853;28;20205;-80
2022/09/22 14:26:17;;;;;;;1.83;1.43;;;;;;;;;;5062750;28;20192;-80
2022/09/22 14:28:42;;;;;;;1.43;1.33;;;;;;;;;;5063611;28;20188;-80
2022/09/22 14:31:15;;;;;;;2.53;1.40;;;;;;;;;;5066522;28;20258;-83
2022/09/22 14:33:43;;;;;;;2.50;1.80;;;;;;;;;;5072580;28;20203;-83
2022/09/22 14:36:16;;;;;;;1.17;1.10;;;;;;;;;;5066679;28;20173;-83
2022/09/22 14:38:41;;;;;;;1.43;1.33;;;;;;;;;;5066516;28;20251;-83
2022/09/22 14:41:21;;;;;;;3.03;1.50;;;;;;;;;;5062620;28;20281;-83
2022/09/22 14:43:46;;;;;;;1.73;1.30;;;;;;;;;;5068830;28;20280;-83
2022/09/22 14:46:32;;;;;;;1.70;1.60;;;;;;;;;;5065944;28;20278;-82
2022/09/22 14:48:58;;;;;;;4.73;1.30;;;;;;;;;;5070241;28;20176;-82
2022/09/22 14:51:25;;;;;;;1.60;1.50;;;;;;;;;;5071853;28;20295;-82
2022/09/22 14:53:54;;;;;;;1.30;1.20;;;;;;;;;;5054032;28;20176;-83
2022/09/22 14:56:26;;;;;;;1.00;1.00;;;;;;;;;;5066119;28;20192;-83
2022/09/22 14:58:56;;;;;;;1.50;1.40;;;;;;;;;;5066072;28;20185;-83
2022/09/22 15:04:13;;;;;;;1.50;1.40;;;;;;;;;;5070021;28;20227;-83
2022/09/22 15:06:38;;;;;;;2.60;1.40;;;;;;;;;;5069332;28;20218;-83
2022/09/22 15:09:05;;;;;;;1.90;1.10;;;;;;;;;;5064317;28;20206;-83